Time;durP1;ratioP1;P1;durP2;ratioP2;P2;SDS_P1;SDS_P2;PMS_P1;PMS_P2;Temp;Humidity;BMP_temperature;BMP_pressure;BME280_temperature;BME280_humidity;BME280_pressure;Samples;Min_cycle;Max_cycle;Signal;HPM_P1;HPM_P2
2021/12/09 06:24:28;;;;;;;;;;;;;;;1.21;100.00;96778.69;5590799;23;19932;-69
2021/12/09 06:26:55;;;;;;;;;;;;;;;1.28;100.00;96776.03;4902869;29;20011;-68
2021/12/09 06:29:23;;;;;;;;;;;;;;;1.31;100.00;96778.03;4900056;29;19965;-69
2021/12/09 06:31:50;;;;;;;;;;;;;;;1.36;100.00;96774.16;4913220;29;19958;-69
2021/12/09 06:34:17;;;;;;;;;;;;;;;1.41;100.00;96782.09;4903032;29;19949;-69
2021/12/09 06:36:45;;;;;;;;;;;;;;;1.38;100.00;96775.38;4904383;29;19964;-69
2021/12/09 06:39:13;;;;;;;;;;;;;;;1.41;100.00;96780.13;4918252;29;19964;-69
2021/12/09 06:41:40;;;;;;;;;;;;;;;1.44;100.00;96782.13;4905932;29;20231;-69
2021/12/09 06:44:08;;;;;;;;;;;;;;;1.42;100.00;96789.97;4908485;29;19931;-68
2021/12/09 06:46:36;;;;;;;;;;;;;;;1.43;100.00;96782.50;4902740;29;19939;-68
2021/12/09 06:49:07;;;;;;;;;;;;;;;1.40;100.00;96788.75;4901631;29;20690;-69
2021/12/09 06:51:34;;;;;;;;;;;;;;;1.38;100.00;96786.38;4900700;29;19939;-69
2021/12/09 06:54:02;;;;;;;;;;;;;;;1.39;100.00;96792.69;4906381;29;20320;-69
2021/12/09 06:56:32;;;;;;;;;;;;;;;1.36;100.00;96785.97;4909776;29;20355;-69
2021/12/09 06:59:00;;;;;;;;;;;;;;;1.41;100.00;96788.41;4912080;29;19935;-69
2021/12/09 07:01:31;;;;;;;;;;;;;;;1.38;100.00;96786.38;4910809;29;19938;-69
2021/12/09 07:03:58;;;;;;;;;;;;;;;1.40;100.00;96786.78;4905638;29;20316;-69
2021/12/09 07:06:26;;;;;;;;;;;;;;;1.41;100.00;96782.09;4902180;29;19931;-68
2021/12/09 07:08:59;;;;;;;;;;;;;;;1.42;100.00;96794.69;4908676;29;19938;-69
2021/12/09 07:11:29;;;;;;;;;;;;;;;1.46;100.00;96790.81;4920587;29;19935;-69
2021/12/09 07:13:57;;;;;;;;;;;;;;;1.47;100.00;96797.91;4908575;29;19935;-69
2021/12/09 07:16:25;;;;;;;;;;;;;;;1.50;100.00;96796.34;4907202;29;19928;-69
2021/12/09 07:18:53;;;;;;;;;;;;;;;1.47;100.00;96803.41;4901070;29;19938;-69
2021/12/09 07:21:22;;;;;;;;;;;;;;;1.50;100.00;96812.88;4916718;29;20328;-69
2021/12/09 07:23:50;;;;;;;;;;;;;;;1.47;100.00;96819.16;4918481;29;19927;-69
2021/12/09 07:26:18;;;;;;;;;;;;;;;1.39;100.00;96814.72;4907072;29;20315;-69
2021/12/09 07:28:45;;;;;;;;;;;;;;;1.39;100.00;96821.03;4914149;29;19931;-69
2021/12/09 07:31:14;;;;;;;;;;;;;;;1.44;100.00;96812.44;4899043;29;19962;-69
2021/12/09 07:33:41;;;;;;;;;;;;;;;1.45;100.00;96815.97;4897996;29;19938;-69
2021/12/09 07:36:09;;;;;;;;;;;;;;;1.50;100.00;96816.44;4902548;29;20225;-69
2021/12/09 07:38:36;;;;;;;;;;;;;;;1.54;100.00;96822.00;4900430;29;19928;-69
2021/12/09 07:41:03;;;;;;;;;;;;;;;1.47;100.00;96832.94;4892750;29;19931;-69
2021/12/09 07:43:31;;;;;;;;;;;;;;;1.55;100.00;96829.88;4900527;29;19935;-69
2021/12/09 07:45:59;;;;;;;;;;;;;;;1.56;100.00;96833.44;4915984;29;19938;-69
2021/12/09 07:48:26;;;;;;;;;;;;;;;1.58;100.00;96831.88;4903533;29;19935;-69
2021/12/09 07:50:53;;;;;;;;;;;;;;;1.66;100.00;96835.53;4905303;29;20336;-68
2021/12/09 07:53:22;;;;;;;;;;;;;;;1.63;100.00;96839.81;4901483;29;19935;-69
2021/12/09 07:55:51;;;;;;;;;;;;;;;1.71;100.00;96843.47;4909639;29;20248;-69
2021/12/09 07:58:18;;;;;;;;;;;;;;;1.71;100.00;96841.47;4917252;29;19934;-69
2021/12/09 08:00:46;;;;;;;;;;;;;;;1.70;100.00;96847.38;4901317;29;19931;-69
2021/12/09 08:03:14;;;;;;;;;;;;;;;1.70;100.00;96844.63;4902498;29;20221;-69
2021/12/09 08:05:44;;;;;;;;;;;;;;;1.76;100.00;96843.13;4900676;29;20340;-69
2021/12/09 08:08:11;;;;;;;;;;;;;;;1.70;100.00;96848.16;4910020;29;20010;-69
2021/12/09 08:10:39;;;;;;;;;;;;;;;1.72;100.00;96837.56;4904614;29;21065;-69
2021/12/09 08:13:08;;;;;;;;;;;;;;;1.74;100.00;96832.47;4897672;29;19932;-69
2021/12/09 08:15:38;;;;;;;;;;;;;;;1.75;100.00;96834.06;4898907;29;19932;-69
2021/12/09 08:20:42;;;;;;;;;;;;;;;1.82;100.00;96833.34;4896144;29;19932;-69
2021/12/09 08:23:10;;;;;;;;;;;;;;;1.86;100.00;96836.91;4873514;29;19935;-69
2021/12/09 08:25:37;;;;;;;;;;;;;;;1.90;100.00;96846.03;4900039;29;19942;-69
2021/12/09 08:28:05;;;;;;;;;;;;;;;1.92;100.00;96838.97;4898175;29;19931;-69
2021/12/09 08:30:33;;;;;;;;;;;;;;;1.97;100.00;96843.34;4895245;29;19983;-69
2021/12/09 08:33:18;;;;;;;;;;;;;;;1.94;100.00;96847.66;4898607;29;19962;-69
2021/12/09 08:35:46;;;;;;;;;;;;;;;1.94;100.00;96847.66;4898076;29;19927;-69
2021/12/09 08:38:14;;;;;;;;;;;;;;;1.97;100.00;96848.88;4899207;29;19932;-69
2021/12/09 08:40:43;;;;;;;;;;;;;;;2.04;100.00;96853.66;4900264;29;19931;-69
2021/12/09 08:43:11;;;;;;;;;;;;;;;2.00;100.00;96862.69;4898787;29;19939;-69
2021/12/09 08:45:39;;;;;;;;;;;;;;;2.08;100.00;96862.78;4893560;29;19939;-69
2021/12/09 08:48:06;;;;;;;;;;;;;;;2.15;100.00;96871.13;4889933;29;19935;-69
2021/12/09 08:50:34;;;;;;;;;;;;;;;2.20;100.00;96865.28;4891187;29;19943;-69
2021/12/09 08:53:03;;;;;;;;;;;;;;;2.20;100.00;96865.28;4879572;29;19932;-69
2021/12/09 08:55:31;;;;;;;;;;;;;;;2.21;100.00;96867.63;4888095;29;19939;-69
2021/12/09 08:57:58;;;;;;;;;;;;;;;2.15;100.00;96877.44;4895320;29;19927;-69
2021/12/09 09:00:28;;;;;;;;;;;;;;;2.09;100.00;96872.63;4899883;29;20335;-69
2021/12/09 09:02:57;;;;;;;;;;;;;;;2.04;100.00;96873.75;4894258;29;19935;-69
2021/12/09 09:05:24;;;;;;;;;;;;;;;2.00;100.00;96875.69;4897043;29;20563;-69
2021/12/09 09:07:52;;;;;;;;;;;;;;;1.94;100.00;96879.94;4899543;29;19935;-69
2021/12/09 09:10:21;;;;;;;;;;;;;;;1.98;100.00;96878.03;4897973;29;20653;-69
2021/12/09 09:12:49;;;;;;;;;;;;;;;2.06;100.00;96882.44;4893052;29;19942;-69
2021/12/09 09:15:18;;;;;;;;;;;;;;;2.07;100.00;96883.25;4897399;29;20233;-69
2021/12/09 09:17:46;;;;;;;;;;;;;;;2.13;100.00;96879.00;4911714;29;19931;-69
2021/12/09 09:20:15;;;;;;;;;;;;;;;2.19;100.00;96883.78;4899299;29;19931;-69
2021/12/09 09:22:43;;;;;;;;;;;;;;;2.20;100.00;96888.09;4899213;29;19931;-69
2021/12/09 09:25:14;;;;;;;;;;;;;;;2.25;100.00;96887.75;4899429;29;19931;-69
2021/12/09 09:27:41;;;;;;;;;;;;;;;2.35;100.00;96884.31;4898928;29;20348;-69
2021/12/09 09:30:13;;;;;;;;;;;;;;;2.46;100.00;96884.44;4897257;29;20340;-69
2021/12/09 09:32:41;;;;;;;;;;;;;;;2.48;100.00;96882.09;4896428;29;19934;-69
2021/12/09 09:35:09;;;;;;;;;;;;;;;2.53;100.00;96887.25;4894036;29;20348;-69
2021/12/09 09:37:37;;;;;;;;;;;;;;;2.63;100.00;96894.84;4889911;29;19935;-69
2021/12/09 09:40:06;;;;;;;;;;;;;;;2.74;100.00;96900.47;4895035;29;19932;-69
2021/12/09 09:45:08;;;;;;;;;;;;;;;3.05;100.00;96894.44;4901133;29;19927;-69
2021/12/09 09:47:36;;;;;;;;;;;;;;;3.19;100.00;96902.81;4897679;29;19928;-69
2021/12/09 09:50:07;;;;;;;;;;;;;;;3.36;100.00;96904.91;4907784;29;20308;-69
2021/12/09 09:52:34;;;;;;;;;;;;;;;3.54;100.00;96905.03;4899103;29;19927;-69
2021/12/09 09:55:06;;;;;;;;;;;;;;;3.74;100.00;96903.56;4898853;29;19941;-69
2021/12/09 09:57:34;;;;;;;;;;;;;;;3.87;100.00;96915.84;4897429;29;19927;-69
2021/12/09 10:00:05;;;;;;;;;;;;;;;3.99;100.00;96913.53;4898336;29;19998;-69
2021/12/09 10:02:35;;;;;;;;;;;;;;;3.86;100.00;96911.53;4897637;29;19939;-69
2021/12/09 10:05:05;;;;;;;;;;;;;;;3.91;100.00;96909.16;4901220;29;19927;-69
2021/12/09 10:07:33;;;;;;;;;;;;;;;4.08;100.00;96913.19;4891259;29;19938;-69
2021/12/09 10:10:03;;;;;;;;;;;;;;;4.15;100.00;96913.22;4896829;29;19962;-69
2021/12/09 10:12:30;;;;;;;;;;;;;;;4.12;100.00;96915.97;4895744;29;19934;-69
2021/12/09 10:14:58;;;;;;;;;;;;;;;3.94;100.00;96918.66;4899473;29;19934;-69
2021/12/09 10:17:26;;;;;;;;;;;;;;;3.71;100.00;96913.41;4894084;29;19932;-69
2021/12/09 10:19:55;;;;;;;;;;;;;;;3.55;100.00;96912.13;4910975;29;19928;-69
2021/12/09 10:22:25;;;;;;;;;;;;;;;3.70;100.00;96906.28;4895835;29;20450;-69
2021/12/09 10:24:54;;;;;;;;;;;;;;;3.85;100.00;96905.19;4893224;29;19935;-69
2021/12/09 10:27:28;;;;;;;;;;;;;;;4.00;100.00;96906.06;4898320;29;19932;-69
2021/12/09 10:30:00;;;;;;;;;;;;;;;4.05;100.00;96908.44;4897535;29;19932;-69
2021/12/09 10:32:31;;;;;;;;;;;;;;;4.23;100.00;96908.50;4897185;29;19950;-69
2021/12/09 10:35:18;;;;;;;;;;;;;;;4.38;100.00;96910.13;4897734;29;19932;-69
2021/12/09 10:37:49;;;;;;;;;;;;;;;4.52;100.00;96918.47;4897344;29;20232;-69
2021/12/09 10:40:20;;;;;;;;;;;;;;;4.59;100.00;96911.00;4898118;29;20213;-69
2021/12/09 10:42:52;;;;;;;;;;;;;;;4.57;100.00;96910.56;4898832;29;19931;-69
2021/12/09 10:45:21;;;;;;;;;;;;;;;4.67;100.00;96911.78;4895701;29;19939;-69
2021/12/09 10:47:54;;;;;;;;;;;;;;;4.57;100.00;96912.56;4879102;29;19939;-69
2021/12/09 10:50:35;;;;;;;;;;;;;;;4.61;100.00;96919.69;4888621;29;19931;-69
2021/12/09 10:53:16;;;;;;;;;;;;;;;4.55;100.00;96915.72;4895187;29;19938;-69
2021/12/09 10:55:44;;;;;;;;;;;;;;;4.51;100.00;96928.75;4897553;29;19935;-69
2021/12/09 10:58:13;;;;;;;;;;;;;;;4.37;100.00;96925.16;4896236;29;19931;-69
2021/12/09 11:00:51;;;;;;;;;;;;;;;4.26;100.00;96918.78;4897462;29;19936;-69
2021/12/09 11:03:23;;;;;;;;;;;;;;;4.21;100.00;96922.72;4896895;29;19927;-69
2021/12/09 11:05:50;;;;;;;;;;;;;;;4.05;100.00;96925.03;4897667;29;19935;-69
2021/12/09 11:08:20;;;;;;;;;;;;;;;4.05;100.00;96927.81;4899340;29;19931;-69
2021/12/09 11:10:49;;;;;;;;;;;;;;;4.16;100.00;96931.41;4898043;29;19927;-69
2021/12/09 11:13:18;;;;;;;;;;;;;;;4.31;100.00;96935.81;4894168;29;20229;-69
2021/12/09 11:15:55;;;;;;;;;;;;;;;4.31;100.00;96938.56;4894352;29;21304;-69
2021/12/09 11:18:36;;;;;;;;;;;;;;;4.23;100.00;96936.19;4895763;29;19931;-69
2021/12/09 11:21:09;;;;;;;;;;;;;;;4.27;100.00;96943.31;4898730;29;19931;-69
2021/12/09 11:23:50;;;;;;;;;;;;;;;4.15;100.00;96949.19;4895257;29;19935;-69
2021/12/09 11:26:28;;;;;;;;;;;;;;;4.18;100.00;96936.56;4881755;29;19934;-69
2021/12/09 11:29:07;;;;;;;;;;;;;;;4.22;100.00;96935.38;4881891;29;19943;-69
2021/12/09 11:31:38;;;;;;;;;;;;;;;4.27;100.00;96931.44;4881828;29;20010;-69
2021/12/09 11:34:13;;;;;;;;;;;;;;;4.25;100.00;96936.56;4881387;29;19932;-69
2021/12/09 11:36:40;;;;;;;;;;;;;;;4.16;100.00;96925.09;4881913;29;19943;-69
2021/12/09 11:39:12;;;;;;;;;;;;;;;4.21;100.00;96927.44;4881490;29;19932;-69
2021/12/09 11:41:41;;;;;;;;;;;;;;;4.18;100.00;96925.50;4890798;29;19931;-69
2021/12/09 11:44:09;;;;;;;;;;;;;;;4.18;100.00;96933.78;4899655;29;19931;-69
2021/12/09 11:46:41;;;;;;;;;;;;;;;4.17;100.00;96919.16;4901090;29;19938;-69
2021/12/09 11:49:09;;;;;;;;;;;;;;;4.16;100.00;96925.84;4902210;29;19935;-69
2021/12/09 11:51:38;;;;;;;;;;;;;;;4.11;100.00;96934.53;4908390;29;19931;-69
2021/12/09 11:54:07;;;;;;;;;;;;;;;4.08;100.00;96934.53;4916484;29;19931;-69
2021/12/09 11:57:09;;;;;;;;;;;;;;;4.08;100.00;96938.09;4918421;29;19931;-69
2021/12/09 12:11:08;;;;;;;;;;;;;;;4.25;100.00;96956.75;4881309;29;19932;-69
2021/12/09 12:13:59;;;;;;;;;;;;;;;4.24;100.00;96954.34;4881156;29;19936;-69
2021/12/09 12:19:42;;;;;;;;;;;;;;;4.14;100.00;96949.56;4896876;29;19931;-69
2021/12/09 12:22:43;;;;;;;;;;;;;;;4.04;100.00;96958.59;4899924;29;19938;-69
2021/12/09 12:25:34;;;;;;;;;;;;;;;4.02;100.00;96967.28;4899970;29;20040;-69
2021/12/09 12:28:53;;;;;;;;;;;;;;;3.96;100.00;96964.09;4883623;29;19938;-69
2021/12/09 12:37:19;;;;;;;;;;;;;;;3.82;100.00;96983.38;4899140;29;19932;-69
2021/12/09 12:40:00;;;;;;;;;;;;;;;3.59;100.00;96979.28;4898016;29;19931;-69
2021/12/09 12:43:14;;;;;;;;;;;;;;;3.43;100.00;96987.84;4899213;29;19954;-69
2021/12/09 12:51:13;;;;;;;;;;;;;;;2.81;100.00;96989.66;4898826;29;19934;-69
2021/12/09 12:53:43;;;;;;;;;;;;;;;2.79;100.00;96986.47;4909669;29;19950;-69
2021/12/09 12:56:11;;;;;;;;;;;;;;;2.83;100.00;96997.56;4917727;29;19931;-69
2021/12/09 12:58:39;;;;;;;;;;;;;;;2.95;100.00;96995.31;4912247;29;19931;-69
2021/12/09 13:01:16;;;;;;;;;;;;;;;2.90;100.00;97003.16;4899200;29;19942;-69
2021/12/09 13:03:51;;;;;;;;;;;;;;;2.89;100.00;97007.88;4898871;29;20375;-69
2021/12/09 13:06:38;;;;;;;;;;;;;;;2.80;100.00;97014.88;4898890;29;19927;-69
2021/12/09 13:09:36;;;;;;;;;;;;;;;2.73;100.00;97021.13;4898669;29;19963;-69
2021/12/09 13:12:07;;;;;;;;;;;;;;;2.72;100.00;97027.00;4898513;29;19935;-69
2021/12/09 13:15:05;;;;;;;;;;;;;;;2.73;100.00;97018.34;4898694;29;20233;-69
2021/12/09 13:17:37;;;;;;;;;;;;;;;2.72;100.00;97030.56;4889168;29;19936;-69
2021/12/09 13:20:13;;;;;;;;;;;;;;;2.73;100.00;97029.41;4880643;29;20607;-69
2021/12/09 13:22:42;;;;;;;;;;;;;;;2.63;100.00;97027.31;4880329;29;19939;-69
2021/12/09 13:25:17;;;;;;;;;;;;;;;2.72;100.00;97027.00;4879981;29;20221;-69
2021/12/09 13:30:31;;;;;;;;;;;;;;;2.69;100.00;97023.03;4879962;29;19931;-69
2021/12/09 13:36:25;;;;;;;;;;;;;;;2.65;100.00;97024.97;4881002;29;19939;-69
2021/12/09 13:47:38;;;;;;;;;;;;;;;2.69;100.00;97017.50;4879995;29;19932;-69
2021/12/09 13:55:33;;;;;;;;;;;;;;;2.63;100.00;97021.78;4883172;29;19935;-69
2021/12/09 13:58:05;;;;;;;;;;;;;;;2.71;100.00;97028.19;4887198;29;19934;-69
2021/12/09 14:00:35;;;;;;;;;;;;;;;2.76;100.00;97036.94;4894078;29;19932;-69
2021/12/09 14:03:02;;;;;;;;;;;;;;;2.74;100.00;97039.25;4896291;29;19939;-69
2021/12/09 14:05:38;;;;;;;;;;;;;;;2.77;100.00;97035.75;4895315;29;19932;-69
2021/12/09 14:08:08;;;;;;;;;;;;;;;2.83;100.00;97042.53;4883850;29;19938;-69
2021/12/09 14:10:39;;;;;;;;;;;;;;;2.93;100.00;97044.63;4891030;29;19932;-69
2021/12/09 14:13:13;;;;;;;;;;;;;;;2.99;100.00;97047.81;4884151;29;20332;-69
2021/12/09 14:15:57;;;;;;;;;;;;;;;2.95;100.00;97046.97;4897802;29;19938;-69
2021/12/09 14:18:30;;;;;;;;;;;;;;;2.98;100.00;97049.78;4897931;29;19938;-69
2021/12/09 14:20:59;;;;;;;;;;;;;;;2.97;100.00;97058.44;4898515;29;19935;-69
2021/12/09 14:23:26;;;;;;;;;;;;;;;2.95;100.00;97058.84;4897538;29;20042;-69
2021/12/09 14:25:53;;;;;;;;;;;;;;;2.93;100.00;97065.91;4897351;29;19927;-69
2021/12/09 14:28:21;;;;;;;;;;;;;;;2.92;100.00;97059.56;4886676;29;19963;-69
2021/12/09 14:30:50;;;;;;;;;;;;;;;2.86;100.00;97058.31;4877559;29;19948;-69
2021/12/09 14:33:19;;;;;;;;;;;;;;;2.76;100.00;97055.47;4878432;29;19932;-68
2021/12/09 14:35:53;;;;;;;;;;;;;;;2.74;100.00;97057.81;4879539;29;19939;-69
2021/12/09 14:38:21;;;;;;;;;;;;;;;2.71;100.00;97066.81;4896966;29;19939;-69
2021/12/09 14:40:50;;;;;;;;;;;;;;;2.64;100.00;97054.53;4897880;29;19932;-69
2021/12/09 14:43:19;;;;;;;;;;;;;;;2.64;100.00;97065.56;4900282;29;20320;-69
2021/12/09 14:45:57;;;;;;;;;;;;;;;2.67;100.00;97064.00;4900720;29;19928;-69
2021/12/09 14:48:35;;;;;;;;;;;;;;;2.66;100.00;97065.19;4900723;29;19935;-69
2021/12/09 14:51:17;;;;;;;;;;;;;;;2.69;100.00;97074.69;4900144;29;19955;-69
2021/12/09 14:53:49;;;;;;;;;;;;;;;2.71;100.00;97075.91;4901724;29;20244;-69
2021/12/09 14:56:22;;;;;;;;;;;;;;;2.68;100.00;97071.13;4901132;29;19938;-69
2021/12/09 14:58:50;;;;;;;;;;;;;;;2.60;100.00;97080.50;4900632;29;19932;-69
2021/12/09 15:01:21;;;;;;;;;;;;;;;2.58;100.00;97072.59;4898831;29;19927;-69
2021/12/09 15:04:02;;;;;;;;;;;;;;;2.59;100.00;97070.63;4900540;29;19931;-69
2021/12/09 15:06:32;;;;;;;;;;;;;;;2.70;100.00;97076.25;4900893;29;19931;-69
2021/12/09 15:09:14;;;;;;;;;;;;;;;2.83;100.00;97080.38;4900811;29;19938;-68
2021/12/09 15:11:49;;;;;;;;;;;;;;;2.88;100.00;97072.56;4900012;29;19942;-69
2021/12/09 15:14:18;;;;;;;;;;;;;;;2.85;100.00;97078.81;4901524;29;19935;-69
2021/12/09 15:16:46;;;;;;;;;;;;;;;2.91;100.00;97084.81;4899552;29;20403;-69
2021/12/09 15:19:17;;;;;;;;;;;;;;;2.89;100.00;97085.16;4895674;29;19936;-69
2021/12/09 15:22:00;;;;;;;;;;;;;;;3.09;100.00;97096.84;4896832;29;19935;-69
2021/12/09 15:24:27;;;;;;;;;;;;;;;3.16;100.00;97091.38;4891284;29;19931;-69
2021/12/09 15:26:54;;;;;;;;;;;;;;;3.18;100.00;97097.31;4900459;29;20455;-69
2021/12/09 15:29:22;;;;;;;;;;;;;;;3.22;100.00;97092.63;4899141;29;20190;-69
2021/12/09 15:32:06;;;;;;;;;;;;;;;3.25;100.00;97095.41;4897275;29;19931;-69
2021/12/09 15:34:38;;;;;;;;;;;;;;;3.31;100.00;97104.16;4907666;29;19958;-69
2021/12/09 15:37:12;;;;;;;;;;;;;;;3.33;100.00;97099.84;4900139;29;19927;-69
2021/12/09 15:39:41;;;;;;;;;;;;;;;3.50;100.00;97092.91;4908009;29;19927;-69
2021/12/09 15:42:08;;;;;;;;;;;;;;;3.57;100.00;97104.00;4902995;29;19928;-69
2021/12/09 15:44:40;;;;;;;;;;;;;;;3.72;100.00;97108.50;4910056;29;20251;-69
2021/12/09 15:47:11;;;;;;;;;;;;;;;3.80;100.00;97112.13;4900116;29;19931;-69
2021/12/09 15:49:49;;;;;;;;;;;;;;;3.87;100.00;97106.66;4907624;29;19942;-69
2021/12/09 15:52:19;;;;;;;;;;;;;;;4.00;100.00;97105.19;4890841;29;19932;-69
2021/12/09 15:54:49;;;;;;;;;;;;;;;4.07;100.00;97108.00;4912862;29;19931;-69
2021/12/09 15:57:19;;;;;;;;;;;;;;;4.10;100.00;97104.47;4919090;29;19938;-69
2021/12/09 15:59:47;;;;;;;;;;;;;;;4.11;100.00;97105.25;4918281;29;19934;-69
2021/12/09 16:02:19;;;;;;;;;;;;;;;4.01;100.00;97114.28;4892234;29;19978;-69
2021/12/09 16:04:47;;;;;;;;;;;;;;;4.06;100.00;97124.97;4900507;29;19931;-69
2021/12/09 16:07:15;;;;;;;;;;;;;;;4.06;100.00;97136.03;4881646;29;19935;-69
2021/12/09 16:09:42;;;;;;;;;;;;;;;4.08;100.00;97133.69;4900005;29;19931;-69
2021/12/09 16:12:10;;;;;;;;;;;;;;;4.08;100.00;97140.03;4899516;29;19931;-69
2021/12/09 16:14:45;;;;;;;;;;;;;;;4.04;100.00;97141.94;4899773;29;19932;-69
2021/12/09 16:17:19;;;;;;;;;;;;;;;3.95;100.00;97141.50;4898129;29;19947;-69
2021/12/09 16:19:50;;;;;;;;;;;;;;;3.80;100.00;97148.06;4881067;29;19931;-69
2021/12/09 16:24:46;;;;;;;;;;;;;;;3.57;100.00;97153.00;4888721;29;20269;-69
2021/12/09 16:27:14;;;;;;;;;;;;;;;3.40;100.00;97156.38;4899907;29;19934;-69
2021/12/09 16:29:44;;;;;;;;;;;;;;;3.38;100.00;97159.50;4899242;29;19939;-69
2021/12/09 16:32:12;;;;;;;;;;;;;;;3.41;100.00;97172.56;4898452;29;19928;-69
2021/12/09 16:34:40;;;;;;;;;;;;;;;3.47;100.00;97178.56;4899771;29;19931;-69
2021/12/09 16:37:07;;;;;;;;;;;;;;;3.46;100.00;97174.19;4899519;29;20351;-69
2021/12/09 16:39:35;;;;;;;;;;;;;;;3.37;100.00;97168.19;4900013;29;19942;-69
2021/12/09 16:42:02;;;;;;;;;;;;;;;3.31;100.00;97170.47;4899386;29;19939;-69
2021/12/09 16:44:30;;;;;;;;;;;;;;;3.36;100.00;97183.16;4900074;29;19970;-69
2021/12/09 16:46:58;;;;;;;;;;;;;;;3.36;100.00;97188.69;4899662;29;19934;-69
2021/12/09 16:49:25;;;;;;;;;;;;;;;3.40;100.00;97198.59;4899318;29;19936;-69
2021/12/09 16:51:53;;;;;;;;;;;;;;;3.46;100.00;97207.34;4898868;29;20198;-69
2021/12/09 16:54:31;;;;;;;;;;;;;;;3.38;100.00;97206.47;4899842;29;19932;-69
2021/12/09 16:59:47;;;;;;;;;;;;;;;3.22;100.00;97212.22;4866803;29;19927;-69
2021/12/09 17:02:14;;;;;;;;;;;;;;;3.17;100.00;97211.75;4894683;29;20542;-69
2021/12/09 17:04:44;;;;;;;;;;;;;;;3.13;100.00;97208.94;4898453;29;20305;-69
2021/12/09 17:07:11;;;;;;;;;;;;;;;3.20;100.00;97216.53;4898940;29;19932;-69
2021/12/09 17:09:39;;;;;;;;;;;;;;;3.20;100.00;97222.06;4899057;29;19931;-69
2021/12/09 17:12:06;;;;;;;;;;;;;;;3.20;100.00;97231.13;4898164;29;19938;-69
2021/12/09 17:14:34;;;;;;;;;;;;;;;3.13;100.00;97231.03;4898767;29;19931;-69
2021/12/09 17:17:02;;;;;;;;;;;;;;;3.13;100.00;97230.25;4898473;29;19939;-69
2021/12/09 17:19:30;;;;;;;;;;;;;;;3.13;100.00;97244.84;4899296;29;19932;-69
2021/12/09 17:21:57;;;;;;;;;;;;;;;3.10;100.00;97237.31;4899230;29;19958;-69
2021/12/09 17:24:25;;;;;;;;;;;;;;;3.08;100.00;97233.34;4898136;29;20519;-69
2021/12/09 17:26:54;;;;;;;;;;;;;;;2.98;100.00;97232.03;4898514;29;19940;-69
2021/12/09 17:29:21;;;;;;;;;;;;;;;3.08;100.00;97225.84;4897770;29;19970;-69
2021/12/09 17:31:49;;;;;;;;;;;;;;;3.06;100.00;97222.66;4881347;29;20661;-69
2021/12/09 17:34:21;;;;;;;;;;;;;;;3.00;100.00;97226.94;4898461;29;19932;-69
2021/12/09 17:36:52;;;;;;;;;;;;;;;2.93;100.00;97229.59;4882043;29;19927;-69
2021/12/09 17:39:20;;;;;;;;;;;;;;;2.87;100.00;97233.03;4898734;29;19932;-69
2021/12/09 17:41:51;;;;;;;;;;;;;;;2.77;100.00;97241.97;4897788;29;19974;-69
2021/12/09 17:44:20;;;;;;;;;;;;;;;2.77;100.00;97242.75;4898536;29;19938;-69
2021/12/09 17:46:51;;;;;;;;;;;;;;;2.76;100.00;97240.38;4898213;29;19932;-69
2021/12/09 17:49:18;;;;;;;;;;;;;;;2.76;100.00;97245.91;4898466;29;19931;-69
2021/12/09 17:51:52;;;;;;;;;;;;;;;2.68;100.00;97253.28;4897837;29;19962;-69
2021/12/09 17:54:19;;;;;;;;;;;;;;;2.70;100.00;97253.72;4897716;29;19962;-69
2021/12/09 17:56:46;;;;;;;;;;;;;;;2.73;100.00;97254.94;4897951;29;19943;-69
2021/12/09 17:59:14;;;;;;;;;;;;;;;2.74;100.00;97257.31;4897496;29;19938;-69
2021/12/09 18:01:41;;;;;;;;;;;;;;;2.71;100.00;97260.84;4896926;29;20256;-69
2021/12/09 18:04:19;;;;;;;;;;;;;;;2.68;100.00;97261.56;4894384;29;19939;-68
2021/12/09 18:06:46;;;;;;;;;;;;;;;2.66;100.00;97263.91;4897278;29;20337;-69
2021/12/09 18:09:14;;;;;;;;;;;;;;;2.65;100.00;97267.81;4897520;29;19942;-69
2021/12/09 18:11:41;;;;;;;;;;;;;;;2.65;100.00;97270.59;4897551;29;20328;-69
2021/12/09 18:14:09;;;;;;;;;;;;;;;2.64;100.00;97274.53;4897918;29;19928;-69
2021/12/09 18:16:42;;;;;;;;;;;;;;;2.67;100.00;97277.31;4897464;29;19934;-69
2021/12/09 18:19:10;;;;;;;;;;;;;;;2.65;100.00;97279.66;4901425;29;19946;-69
2021/12/09 18:21:37;;;;;;;;;;;;;;;2.56;100.00;97283.84;4902248;29;19928;-69
2021/12/09 18:24:05;;;;;;;;;;;;;;;2.46;100.00;97281.72;4898863;29;19942;-69
2021/12/09 18:26:34;;;;;;;;;;;;;;;2.36;100.00;97288.66;4866821;29;19928;-69
2021/12/09 18:29:02;;;;;;;;;;;;;;;2.38;100.00;97288.28;4882067;29;19932;-69
2021/12/09 18:31:30;;;;;;;;;;;;;;;2.29;100.00;97288.53;4884879;29;19931;-69
2021/12/09 18:34:04;;;;;;;;;;;;;;;2.15;100.00;97285.53;4885226;29;19940;-69
2021/12/09 18:36:32;;;;;;;;;;;;;;;2.09;100.00;97294.47;4882747;29;19932;-69
2021/12/09 18:39:00;;;;;;;;;;;;;;;1.98;100.00;97286.81;4888756;29;19939;-69
2021/12/09 18:41:28;;;;;;;;;;;;;;;1.92;100.00;97293.78;4883653;29;20222;-69
2021/12/09 18:43:57;;;;;;;;;;;;;;;1.83;100.00;97292.44;4883464;29;19931;-69
2021/12/09 18:46:24;;;;;;;;;;;;;;;1.79;100.00;97295.13;4879822;29;19935;-69
2021/12/09 18:48:52;;;;;;;;;;;;;;;1.69;100.00;97294.91;4882482;29;19939;-69
2021/12/09 18:51:23;;;;;;;;;;;;;;;1.66;100.00;97293.69;4883026;29;19936;-69
2021/12/09 18:53:52;;;;;;;;;;;;;;;1.64;100.00;97301.50;4866256;29;19939;-69
2021/12/09 18:56:20;;;;;;;;;;;;;;;1.63;100.00;97307.41;4882341;29;19939;-69
2021/12/09 18:58:48;;;;;;;;;;;;;;;1.65;100.00;97296.78;4881950;29;19935;-69
2021/12/09 19:01:16;;;;;;;;;;;;;;;1.66;100.00;97306.66;4873911;29;19939;-69
2021/12/09 19:03:44;;;;;;;;;;;;;;;1.65;100.00;97308.63;4865966;29;20308;-69
2021/12/09 19:06:14;;;;;;;;;;;;;;;1.62;100.00;97303.84;4865906;29;19958;-69
2021/12/09 19:08:42;;;;;;;;;;;;;;;1.61;100.00;97296.75;4882863;29;19932;-68
2021/12/09 19:11:12;;;;;;;;;;;;;;;1.60;100.00;97292.38;4882121;29;19932;-69
2021/12/09 19:13:41;;;;;;;;;;;;;;;1.64;100.00;97292.47;4881400;29;19935;-69
2021/12/09 19:16:09;;;;;;;;;;;;;;;1.70;100.00;97283.53;4882000;29;19932;-69
2021/12/09 19:18:37;;;;;;;;;;;;;;;1.84;100.00;97286.53;4882152;29;19932;-69
2021/12/09 19:21:04;;;;;;;;;;;;;;;1.85;100.00;97279.88;4882073;29;19939;-69
2021/12/09 19:23:32;;;;;;;;;;;;;;;1.90;100.00;97287.06;4881827;29;20419;-69
2021/12/09 19:26:01;;;;;;;;;;;;;;;1.95;100.00;97297.78;4900549;29;19935;-69
2021/12/09 19:28:30;;;;;;;;;;;;;;;1.93;100.00;97292.63;4884255;29;19931;-69
2021/12/09 19:30:58;;;;;;;;;;;;;;;1.95;100.00;97301.34;4899190;29;20422;-69
2021/12/09 19:33:27;;;;;;;;;;;;;;;1.96;100.00;97304.88;4900182;29;19932;-69
2021/12/09 19:35:57;;;;;;;;;;;;;;;1.99;100.00;97301.38;4900493;29;19931;-69
2021/12/09 19:38:24;;;;;;;;;;;;;;;2.02;100.00;97299.84;4900175;29;19931;-69
2021/12/09 19:40:52;;;;;;;;;;;;;;;1.90;100.00;97300.84;4900897;29;19935;-69
2021/12/09 19:43:20;;;;;;;;;;;;;;;1.86;100.00;97302.72;4900137;29;19953;-69
2021/12/09 19:45:47;;;;;;;;;;;;;;;1.78;100.00;97309.28;4900388;29;19939;-69
2021/12/09 19:48:15;;;;;;;;;;;;;;;1.73;100.00;97304.84;4900851;29;19932;-69
2021/12/09 19:50:43;;;;;;;;;;;;;;;1.68;100.00;97302.41;4900800;29;19935;-69
2021/12/09 19:53:10;;;;;;;;;;;;;;;1.66;100.00;97295.66;4896233;29;20329;-68
2021/12/09 19:55:39;;;;;;;;;;;;;;;1.68;100.00;97287.81;4900401;29;19938;-68
2021/12/09 19:58:07;;;;;;;;;;;;;;;1.74;100.00;97295.41;4883076;29;20229;-69
2021/12/09 20:00:36;;;;;;;;;;;;;;;1.76;100.00;97295.06;4899570;29;19932;-69
2021/12/09 20:03:04;;;;;;;;;;;;;;;1.77;100.00;97302.94;4898281;29;19927;-69
2021/12/09 20:05:32;;;;;;;;;;;;;;;1.77;100.00;97302.94;4895301;29;19938;-69
2021/12/09 20:08:00;;;;;;;;;;;;;;;1.83;100.00;97306.22;4899869;29;19939;-69
2021/12/09 20:10:29;;;;;;;;;;;;;;;1.85;100.00;97295.63;4899338;29;19927;-69
2021/12/09 20:12:58;;;;;;;;;;;;;;;1.85;100.00;97295.63;4899530;29;19931;-69
2021/12/09 20:15:26;;;;;;;;;;;;;;;1.89;100.00;97305.53;4903610;29;20328;-69
2021/12/09 20:17:53;;;;;;;;;;;;;;;1.95;100.00;97301.34;4900242;29;19931;-69
2021/12/09 20:20:21;;;;;;;;;;;;;;;1.97;100.00;97296.25;4899089;29;19932;-69
2021/12/09 20:22:53;;;;;;;;;;;;;;;2.00;100.00;97309.28;4899840;29;19938;-69
2021/12/09 20:25:21;;;;;;;;;;;;;;;2.02;100.00;97305.38;4899677;29;19932;-69